createdAt,value
2022-12-19T00:00:00.140Z,102400.14
2022-12-19T00:04:08.028Z,102396.23
2022-12-19T00:08:17.085Z,102392.51
2022-12-19T00:12:19.836Z,102380.33
2022-12-19T00:16:25.289Z,102386.92
2022-12-19T00:20:27.418Z,102386.61
2022-12-19T00:24:29.327Z,102387.80
2022-12-19T00:28:31.296Z,102388.28
2022-12-19T00:32:33.177Z,102388.11
2022-12-19T00:36:35.292Z,102378.48
2022-12-19T00:40:37.242Z,102378.32
2022-12-19T00:44:42.405Z,102383.90
2022-12-19T00:48:44.297Z,102383.22
2022-12-19T00:52:46.198Z,102384.07
2022-12-19T00:56:48.143Z,102385.25
2022-12-19T01:00:50.201Z,102381.02
2022-12-19T01:04:52.162Z,102381.70
2022-12-19T01:08:54.610Z,102376.27
2022-12-19T01:12:56.885Z,102374.92
2022-12-19T01:16:58.796Z,102375.43
2022-12-19T01:21:02.846Z,102379.99
2022-12-19T01:25:06.012Z,102382.20
2022-12-19T01:29:07.930Z,102377.12
2022-12-19T01:33:14.598Z,102382.87
2022-12-19T01:37:17.082Z,102391.65
2022-12-19T01:41:19.101Z,102395.55
2022-12-19T01:45:34.838Z,102392.84
2022-12-19T01:49:37.890Z,102381.31
2022-12-19T01:53:57.267Z,102380.14
2022-12-19T01:58:00.992Z,102371.84
2022-12-19T02:02:27.340Z,102368.29
2022-12-19T02:06:30.959Z,102371.35
2022-12-19T02:10:33.858Z,102359.48
2022-12-19T02:14:35.979Z,102362.88
2022-12-19T02:18:51.496Z,102368.94
2022-12-19T02:23:09.508Z,102359.94
2022-12-19T02:27:47.707Z,102361.07
2022-12-19T02:32:00.112Z,102363.89
2022-12-19T02:36:07.014Z,102353.36
2022-12-19T02:40:17.705Z,102348.58
2022-12-19T02:44:47.712Z,102345.33
2022-12-19T02:48:52.305Z,102343.94
2022-12-19T02:52:54.895Z,102345.89
2022-12-19T02:57:19.376Z,102344.05
2022-12-19T03:01:44.951Z,102326.98
2022-12-19T03:06:16.384Z,102325.14
2022-12-19T03:10:38.366Z,102321.08
2022-12-19T03:14:42.021Z,102313.29
2022-12-19T03:18:45.071Z,102316.83
2022-12-19T03:22:47.107Z,102319.69
2022-12-19T03:27:14.247Z,102315.44
2022-12-19T03:31:19.006Z,102310.17
2022-12-19T03:35:25.090Z,102298.43
2022-12-19T03:39:30.198Z,102294.08
2022-12-19T03:43:34.412Z,102291.98
2022-12-19T03:47:41.602Z,102299.98
2022-12-19T03:51:59.216Z,102295.48
2022-12-19T03:56:42.785Z,102299.40
2022-12-19T04:00:49.722Z,102294.70
2022-12-19T04:04:55.580Z,102298.17
2022-12-19T04:08:59.567Z,102295.63
2022-12-19T04:13:11.546Z,102300.55
2022-12-19T04:17:29.397Z,102299.60
2022-12-19T04:21:46.771Z,102296.58
2022-12-19T04:25:54.208Z,102290.34
2022-12-19T04:29:58.798Z,102282.42
2022-12-19T04:34:00.718Z,102280.23
2022-12-19T04:38:02.870Z,102270.95
2022-12-19T04:42:04.899Z,102268.06
2022-12-19T04:46:06.848Z,102267.70
2022-12-19T04:50:09.631Z,102262.77
2022-12-19T04:54:11.564Z,102252.29
2022-12-19T04:58:17.605Z,102256.11
2022-12-19T05:02:21.413Z,102260.13
2022-12-19T05:06:23.883Z,102257.92
2022-12-19T05:10:25.851Z,102252.21
2022-12-19T05:14:27.759Z,102241.91
2022-12-19T05:18:30.214Z,102223.35
2022-12-19T05:22:32.357Z,102232.08
2022-12-19T05:26:34.293Z,102226.48
2022-12-19T05:30:36.230Z,102225.82
2022-12-19T05:34:38.428Z,102227.02
2022-12-19T05:38:40.577Z,102229.73
2022-12-19T05:42:42.480Z,102224.67
2022-12-19T05:46:44.622Z,102224.69
2022-12-19T05:50:48.908Z,102227.20
2022-12-19T05:54:50.851Z,102229.89
2022-12-19T05:58:54.051Z,102223.80
2022-12-19T06:02:56.115Z,102224.48
2022-12-19T06:06:58.665Z,102217.19
2022-12-19T06:11:02.196Z,102212.13
2022-12-19T06:15:04.472Z,102208.26
2022-12-19T06:19:06.588Z,102195.96
2022-12-19T06:23:08.487Z,102192.77
2022-12-19T06:27:10.975Z,102191.45
2022-12-19T06:31:13.719Z,102187.23
2022-12-19T06:35:16.176Z,102187.60
2022-12-19T06:39:18.329Z,102187.08
2022-12-19T06:43:20.291Z,102189.77
2022-12-19T06:47:23.836Z,102191.11
2022-12-19T06:51:26.095Z,102187.06
2022-12-19T06:55:28.119Z,102191.95
2022-12-19T06:59:30.283Z,102194.01
2022-12-19T07:03:38.830Z,102196.56
2022-12-19T07:07:40.979Z,102193.55
2022-12-19T07:11:42.877Z,102190.71
2022-12-19T07:15:44.878Z,102180.31
2022-12-19T07:19:47.276Z,102181.85
2022-12-19T07:23:49.256Z,102187.80
2022-12-19T07:27:52.021Z,102187.69
2022-12-19T07:31:54.265Z,102189.09
2022-12-19T07:35:56.313Z,102189.28
2022-12-19T07:39:58.291Z,102199.96
2022-12-19T07:44:00.178Z,102200.33
2022-12-19T07:48:03.479Z,102195.82
2022-12-19T07:52:05.370Z,102194.80
2022-12-19T07:56:07.750Z,102193.44
2022-12-19T08:00:10.397Z,102201.84
2022-12-19T08:04:15.252Z,102203.36
2022-12-19T08:08:17.340Z,102208.61
2022-12-19T08:12:21.616Z,102211.83
2022-12-19T08:16:26.493Z,102213.38
2022-12-19T08:20:28.666Z,102202.79
2022-12-19T08:24:30.591Z,102202.85
2022-12-19T08:28:34.337Z,102198.71
2022-12-19T08:32:36.330Z,102204.02
2022-12-19T08:36:39.200Z,102207.43
2022-12-19T08:40:47.110Z,102200.39
2022-12-19T08:44:49.402Z,102201.96
2022-12-19T08:48:51.336Z,102199.27
2022-12-19T08:52:53.457Z,102183.94
2022-12-19T08:56:55.356Z,102167.23
2022-12-19T09:01:05.812Z,102159.15
2022-12-19T09:05:59.780Z,102157.14
2022-12-19T09:09:30.258Z,102149.20
2022-12-19T09:13:32.682Z,102140.07
2022-12-19T09:17:34.665Z,102127.40
2022-12-19T09:21:36.574Z,102118.11
2022-12-19T09:25:38.485Z,102111.52
2022-12-19T09:29:40.507Z,102103.20
2022-12-19T09:33:43.845Z,102087.12
2022-12-19T09:37:46.127Z,102081.35
2022-12-19T09:42:11.932Z,102072.86
2022-12-19T09:46:28.964Z,102061.33
2022-12-19T09:50:51.329Z,102058.40
2022-12-19T09:55:01.815Z,102052.40
2022-12-19T09:59:15.809Z,102053.35
2022-12-19T10:03:28.129Z,102048.16
2022-12-19T10:07:54.695Z,102036.70
2022-12-19T10:12:43.496Z,102029.49
2022-12-19T10:17:22.684Z,102027.52
2022-12-19T10:22:17.547Z,102017.17
2022-12-19T10:26:23.378Z,102005.84
2022-12-19T10:30:38.990Z,102002.42
2022-12-19T10:34:42.912Z,101994.13
2022-12-19T10:39:33.089Z,101981.09
2022-12-19T10:44:05.329Z,101971.98
2022-12-19T10:48:15.143Z,101960.34
2022-12-19T10:52:48.118Z,101945.94
2022-12-19T10:56:50.243Z,101928.11
2022-12-19T11:01:11.577Z,101924.86
2022-12-19T11:05:24.965Z,101917.93
2022-12-19T11:09:30.119Z,101913.25
2022-12-19T11:19:32.561Z,101904.39
2022-12-19T11:27:16.182Z,101891.27
2022-12-19T11:29:38.446Z,101890.88
2022-12-19T11:30:36.285Z,101885.03
2022-12-19T11:35:49.737Z,101877.76
2022-12-19T11:39:58.884Z,101875.89
2022-12-19T11:44:19.607Z,101873.41
2022-12-19T11:48:47.677Z,101873.84
2022-12-19T11:53:04.505Z,101867.46
2022-12-19T11:57:12.680Z,101867.11
2022-12-19T12:01:23.227Z,101868.12
2022-12-19T12:05:51.252Z,101864.21
2022-12-19T12:18:03.656Z,101854.73
2022-12-19T12:22:32.974Z,101853.59
2022-12-19T12:31:04.353Z,101844.92
2022-12-19T12:31:41.052Z,101832.36
2022-12-19T12:31:47.165Z,101844.06
2022-12-19T12:35:35.106Z,101828.15
2022-12-19T12:43:01.870Z,101812.79
2022-12-19T12:47:21.768Z,101810.64
2022-12-19T12:51:25.306Z,101806.33
2022-12-19T12:55:30.037Z,101801.13
2022-12-19T12:59:32.311Z,101795.73
2022-12-19T13:03:34.865Z,101785.74
2022-12-19T13:07:51.140Z,101773.26
2022-12-19T13:12:22.940Z,101762.00
2022-12-19T13:16:43.325Z,101764.47
2022-12-19T13:20:47.441Z,101764.55
2022-12-19T13:24:57.012Z,101761.17
2022-12-19T13:29:29.949Z,101764.08
2022-12-19T13:34:10.749Z,101761.23
2022-12-19T13:39:54.912Z,101761.01
2022-12-19T13:43:17.865Z,101761.09
2022-12-19T13:47:23.759Z,101771.54
2022-12-19T13:51:26.152Z,101763.51
2022-12-19T13:55:29.349Z,101759.50
2022-12-19T13:59:38.295Z,101744.33
2022-12-19T14:03:43.282Z,101729.03
2022-12-19T14:07:46.490Z,101718.27
2022-12-19T14:13:42.950Z,101714.58
2022-12-19T14:16:16.777Z,101701.73
2022-12-19T14:21:39.652Z,101699.33
2022-12-19T14:25:33.239Z,101705.08
2022-12-19T14:29:45.428Z,101700.02
2022-12-19T14:39:24.040Z,101675.75
2022-12-19T14:43:59.131Z,101666.66
2022-12-19T14:54:11.823Z,101664.64
2022-12-19T14:54:28.277Z,101657.88
2022-12-19T14:56:47.188Z,101657.38
2022-12-19T15:01:09.339Z,101655.01
2022-12-19T15:05:16.441Z,101653.65
2022-12-19T15:10:59.007Z,101646.34
2022-12-19T15:14:53.232Z,101644.79
2022-12-19T15:18:24.255Z,101629.39
2022-12-19T15:22:26.214Z,101618.75
2022-12-19T15:26:32.038Z,101626.04
2022-12-19T15:30:37.799Z,101617.09
2022-12-19T15:34:50.485Z,101615.41
2022-12-19T15:38:53.527Z,101608.83
2022-12-19T15:42:57.932Z,101599.04
2022-12-19T15:47:01.325Z,101596.02
2022-12-19T15:51:03.406Z,101587.55
2022-12-19T15:55:06.167Z,101584.67
2022-12-19T15:59:37.723Z,101574.51
2022-12-19T16:03:40.641Z,101566.20
2022-12-19T16:07:43.721Z,101567.37
2022-12-19T16:11:45.940Z,101562.77
2022-12-19T16:15:49.048Z,101557.52
2022-12-19T16:19:51.269Z,101556.83
2022-12-19T16:23:54.061Z,101560.88
2022-12-19T16:27:58.439Z,101549.16
2022-12-19T16:32:01.336Z,101534.43
2022-12-19T16:36:05.172Z,101522.27
2022-12-19T16:40:14.362Z,101521.39
2022-12-19T16:44:22.220Z,101516.61
2022-12-19T16:48:26.543Z,101512.15
2022-12-19T16:52:28.522Z,101502.94
2022-12-19T16:56:40.076Z,101490.16
2022-12-19T17:00:42.142Z,101477.40
2022-12-19T17:04:47.596Z,101482.92
2022-12-19T17:08:54.161Z,101480.34
2022-12-19T17:12:57.886Z,101471.85
2022-12-19T17:17:00.092Z,101464.04
2022-12-19T17:21:02.573Z,101445.08
2022-12-19T17:25:22.679Z,101441.15
2022-12-19T17:29:24.694Z,101427.60
2022-12-19T17:33:39.299Z,101420.16
2022-12-19T17:37:42.929Z,101412.39
2022-12-19T17:41:44.843Z,101417.62
2022-12-19T17:45:49.037Z,101413.02
2022-12-19T17:49:51.357Z,101396.24
2022-12-19T17:53:53.323Z,101391.27
2022-12-19T17:57:56.208Z,101379.08
2022-12-19T18:01:58.364Z,101384.13
2022-12-19T18:06:00.752Z,101380.52
2022-12-19T18:10:06.532Z,101378.90
2022-12-19T18:14:08.823Z,101375.91
2022-12-19T18:18:16.462Z,101382.79
2022-12-19T18:22:18.412Z,101377.09
2022-12-19T18:26:20.458Z,101374.14
2022-12-19T18:30:24.055Z,101375.77
2022-12-19T18:34:28.518Z,101378.93
2022-12-19T18:38:30.573Z,101377.70
2022-12-19T18:42:32.689Z,101374.26
2022-12-19T18:46:35.299Z,101372.67
2022-12-19T18:50:37.392Z,101370.55
2022-12-19T18:54:39.623Z,101365.21
2022-12-19T18:58:41.881Z,101359.35
2022-12-19T19:02:49.012Z,101356.89
2022-12-19T19:06:54.773Z,101351.89
2022-12-19T19:10:59.469Z,101348.38
2022-12-19T19:15:01.938Z,101346.21
2022-12-19T19:19:06.421Z,101338.65
2022-12-19T19:23:10.944Z,101341.23
2022-12-19T19:27:13.023Z,101334.35
2022-12-19T19:31:17.268Z,101326.63
2022-12-19T19:35:21.444Z,101315.20
2022-12-19T19:39:23.586Z,101312.26
2022-12-19T19:43:26.564Z,101301.50
2022-12-19T19:47:28.684Z,101295.85
2022-12-19T19:51:30.623Z,101289.89
2022-12-19T19:55:32.514Z,101282.91
2022-12-19T19:59:34.435Z,101268.80
2022-12-19T20:03:37.636Z,101259.27
2022-12-19T20:07:39.686Z,101246.48
2022-12-19T20:11:41.675Z,101229.13
2022-12-19T20:15:49.487Z,101224.00
2022-12-19T20:19:51.944Z,101223.05
2022-12-19T20:23:53.995Z,101221.08
2022-12-19T20:27:55.997Z,101213.18
2022-12-19T20:31:57.954Z,101209.16
2022-12-19T20:36:08.949Z,101206.70
2022-12-19T20:40:11.494Z,101204.73
2022-12-19T20:44:16.432Z,101201.91
2022-12-19T20:48:22.212Z,101200.30
2022-12-19T20:52:24.143Z,101201.56
2022-12-19T20:56:26.208Z,101189.05
2022-12-19T21:00:28.265Z,101193.33
2022-12-19T21:04:30.865Z,101202.04
2022-12-19T21:08:33.665Z,101201.75
2022-12-19T21:12:35.641Z,101201.95
2022-12-19T21:16:37.714Z,101200.47
2022-12-19T21:20:39.922Z,101197.15
2022-12-19T21:24:41.815Z,101195.83
2022-12-19T21:28:44.305Z,101190.14
2022-12-19T21:32:46.736Z,101181.54
2022-12-19T21:36:48.852Z,101176.35
2022-12-19T21:40:50.810Z,101167.57
2022-12-19T21:44:52.703Z,101162.40
2022-12-19T21:48:56.344Z,101161.11
2022-12-19T21:52:58.813Z,101158.30
2022-12-19T21:57:03.539Z,101149.37
2022-12-19T22:01:10.918Z,101146.52
2022-12-19T22:05:13.918Z,101138.01
2022-12-19T22:09:18.747Z,101135.28
2022-12-19T22:13:21.115Z,101126.97
2022-12-19T22:17:23.158Z,101120.73
2022-12-19T22:21:26.256Z,101121.30
2022-12-19T22:25:28.177Z,101112.35
2022-12-19T22:29:35.820Z,101105.72
2022-12-19T22:33:37.801Z,101103.52
2022-12-19T22:37:39.803Z,101099.29
2022-12-19T22:41:43.279Z,101089.29
2022-12-19T22:45:45.299Z,101077.92
2022-12-19T22:49:52.086Z,101077.94
2022-12-19T22:53:54.550Z,101074.89
2022-12-19T22:57:56.462Z,101063.16
2022-12-19T23:01:58.749Z,101056.55
2022-12-19T23:06:01.784Z,101050.02
2022-12-19T23:10:04.328Z,101043.54
2022-12-19T23:14:08.915Z,101041.22
2022-12-19T23:18:10.952Z,101032.11
2022-12-19T23:22:12.954Z,101027.90
2022-12-19T23:26:26.702Z,101024.17
2022-12-19T23:30:28.600Z,101016.30
2022-12-19T23:34:30.544Z,101008.41
2022-12-19T23:38:33.169Z,101008.09
2022-12-19T23:42:35.130Z,101001.37
2022-12-19T23:46:37.427Z,100996.39
2022-12-19T23:50:39.520Z,100995.88
2022-12-19T23:54:41.408Z,100993.05
2022-12-19T23:58:45.141Z,100981.73
